Wall Lake, Iowa
Current Conditions -  °F | °C
As of 10:15 AM on Monday 22 Dec 2014 (Local Time) from KCIN Reporting Station
Unknown Precip Unknown Precip  
Wind Chill: 30°   Ceiling: 600
Heat Index: 39°   Visibility: 2.5mi
Dew Point: 39°   Wind: 16mph
Humidity: 100%   Direction: 150°SSE
Pressure: 29.55"   Gusts: NA
Location:  42.27°N, 95.09°W
Report Text: KCIN 221615Z AUTO 15014KT 2 1/2SM -UP OVC006 04/04 A2955 RMK AO2
Loading
Personal Weather Stations






























Interactive Weather Map New forecast layout! Learn more

10-Day Weather Forecast

Advertisements
Track Severe Weather on mobile